createdAt,value
2018-01-10T00:01:34.365Z,8.83
2018-01-10T00:04:44.335Z,7.93
2018-01-10T00:07:54.143Z,8.50
2018-01-10T00:11:05.008Z,8.30
2018-01-10T00:14:18.392Z,8.47
2018-01-10T00:17:29.585Z,7.97
2018-01-10T00:20:42.715Z,7.20
2018-01-10T00:23:52.911Z,8.37
2018-01-10T00:27:02.898Z,8.40
2018-01-10T00:30:14.564Z,7.50
2018-01-10T00:33:25.329Z,7.40
2018-01-10T00:36:35.745Z,6.43
2018-01-10T00:39:49.321Z,8.40
2018-01-10T00:43:07.396Z,7.90
2018-01-10T00:46:19.826Z,8.57
2018-01-10T00:49:32.796Z,6.93
2018-01-10T00:52:43.238Z,8.03
2018-01-10T00:55:55.363Z,8.27
2018-01-10T00:59:05.529Z,7.30
2018-01-10T01:02:17.210Z,7.70
2018-01-10T01:05:27.998Z,8.60
2018-01-10T01:08:38.306Z,8.47
2018-01-10T01:11:47.318Z,7.43
2018-01-10T01:14:57.886Z,7.97
2018-01-10T01:18:07.420Z,7.43
2018-01-10T01:21:17.648Z,7.03
2018-01-10T01:24:27.288Z,7.33
2018-01-10T01:27:40.761Z,7.30
2018-01-10T01:30:52.963Z,7.20
2018-01-10T01:34:07.304Z,7.90
2018-01-10T01:37:23.634Z,7.00
2018-01-10T01:40:34.310Z,7.77
2018-01-10T01:43:43.314Z,7.97
2018-01-10T01:46:57.012Z,8.40
2018-01-10T01:50:06.590Z,7.50
2018-01-10T01:53:16.948Z,8.67
2018-01-10T01:56:27.700Z,8.50
2018-01-10T01:59:42.618Z,8.53
2018-01-10T02:02:53.835Z,7.80
2018-01-10T02:06:05.189Z,8.37
2018-01-10T02:09:17.664Z,8.23
2018-01-10T02:12:28.094Z,8.60
2018-01-10T02:15:39.232Z,7.47
2018-01-10T02:18:48.800Z,7.67
2018-01-10T02:22:00.660Z,8.00
2018-01-10T02:25:10.283Z,7.80
2018-01-10T02:28:19.071Z,8.90
2018-01-10T02:31:30.255Z,8.50
2018-01-10T02:34:44.143Z,7.50
2018-01-10T02:37:54.616Z,8.13
2018-01-10T02:41:05.665Z,8.03
2018-01-10T02:44:17.149Z,7.77
2018-01-10T02:47:29.778Z,7.57
2018-01-10T02:50:40.997Z,7.23
2018-01-10T02:53:55.955Z,8.70
2018-01-10T02:57:06.601Z,7.97
2018-01-10T03:00:17.187Z,8.37
2018-01-10T03:03:26.907Z,7.40
2018-01-10T03:06:37.078Z,8.30
2018-01-10T03:09:47.056Z,8.03
2018-01-10T03:12:58.147Z,8.93
2018-01-10T03:16:10.454Z,8.30
2018-01-10T03:19:20.424Z,8.43
2018-01-10T03:22:31.041Z,9.20
2018-01-10T03:25:54.141Z,9.03
2018-01-10T03:29:05.090Z,9.23
2018-01-10T03:32:17.576Z,8.03
2018-01-10T03:35:27.668Z,8.00
2018-01-10T03:38:40.296Z,8.10
2018-01-10T03:41:50.008Z,8.70
2018-01-10T03:45:03.851Z,8.93
2018-01-10T03:48:15.656Z,7.20
2018-01-10T03:51:26.182Z,9.00
2018-01-10T03:54:36.818Z,8.93
2018-01-10T03:57:48.170Z,9.20
2018-01-10T04:00:58.189Z,8.77
2018-01-10T04:04:10.299Z,8.47
2018-01-10T04:07:33.693Z,8.03
2018-01-10T04:10:44.521Z,8.77
2018-01-10T04:13:54.259Z,9.47
2018-01-10T04:17:03.901Z,9.67
2018-01-10T04:20:18.278Z,9.20
2018-01-10T04:23:30.119Z,9.33
2018-01-10T04:26:44.089Z,9.30
2018-01-10T04:29:52.994Z,10.10
2018-01-10T04:33:02.533Z,9.23
2018-01-10T04:36:13.472Z,9.00
2018-01-10T04:39:22.990Z,8.33
2018-01-10T04:42:33.231Z,9.17
2018-01-10T04:45:49.513Z,9.20
2018-01-10T04:49:16.946Z,9.17
2018-01-10T04:52:26.088Z,9.83
2018-01-10T04:55:35.384Z,10.20
2018-01-10T04:58:45.880Z,9.70
2018-01-10T05:01:56.704Z,10.10
2018-01-10T05:05:06.765Z,9.90
2018-01-10T05:08:22.248Z,9.60
2018-01-10T05:11:31.875Z,9.30
2018-01-10T05:14:41.937Z,9.80
2018-01-10T05:17:54.664Z,10.10
2018-01-10T05:21:02.768Z,9.53
2018-01-10T05:24:10.105Z,11.20
2018-01-10T05:27:20.293Z,10.37
2018-01-10T05:30:47.927Z,10.97
2018-01-10T05:34:00.711Z,10.63
2018-01-10T05:37:18.019Z,11.00
2018-01-10T05:40:28.354Z,11.40
2018-01-10T05:43:56.198Z,10.50
2018-01-10T05:47:08.699Z,10.53
2018-01-10T05:50:34.357Z,10.30
2018-01-10T05:53:45.243Z,11.30
2018-01-10T05:56:58.899Z,9.70
2018-01-10T06:00:08.887Z,10.97
2018-01-10T06:03:18.862Z,11.33
2018-01-10T06:06:29.372Z,10.70
2018-01-10T06:09:54.583Z,11.10
2018-01-10T06:13:05.547Z,10.57
2018-01-10T06:16:15.520Z,10.77
2018-01-10T06:19:25.564Z,11.50
2018-01-10T06:22:37.673Z,10.33
2018-01-10T06:25:52.615Z,11.40
2018-01-10T06:29:01.578Z,11.33
2018-01-10T06:32:13.438Z,10.63
2018-01-10T06:35:25.680Z,10.70
2018-01-10T06:38:36.499Z,11.20
2018-01-10T06:41:47.036Z,11.17
2018-01-10T06:44:56.830Z,11.90
2018-01-10T06:48:07.543Z,11.70
2018-01-10T06:51:18.898Z,11.03
2018-01-10T06:54:28.656Z,11.07
2018-01-10T06:57:37.659Z,10.63
2018-01-10T07:00:48.390Z,11.77
2018-01-10T07:03:59.827Z,10.90
2018-01-10T07:07:10.341Z,11.53
2018-01-10T07:10:20.003Z,10.27
2018-01-10T07:13:31.353Z,10.50
2018-01-10T07:16:43.997Z,11.63
2018-01-10T07:19:55.181Z,11.27
2018-01-10T07:23:05.616Z,10.80
2018-01-10T07:26:17.229Z,11.20
2018-01-10T07:29:28.163Z,11.43
2018-01-10T07:32:38.863Z,12.57
2018-01-10T07:35:51.388Z,11.67
2018-01-10T07:38:58.687Z,11.70
2018-01-10T07:42:26.922Z,11.07
2018-01-10T07:45:37.819Z,11.97
2018-01-10T07:49:09.685Z,12.90
2018-01-10T07:52:26.067Z,11.90
2018-01-10T07:55:38.003Z,12.80
2018-01-10T07:58:48.679Z,11.57
2018-01-10T08:02:00.333Z,11.77
2018-01-10T08:05:14.694Z,10.90
2018-01-10T08:08:22.326Z,12.40
2018-01-10T08:11:34.135Z,11.10
2018-01-10T08:14:43.114Z,10.47
2018-01-10T08:17:53.903Z,10.30
2018-01-10T08:21:05.424Z,12.40
2018-01-10T08:24:15.194Z,11.73
2018-01-10T08:27:26.072Z,9.87
2018-01-10T08:30:37.132Z,11.83
2018-01-10T08:33:49.111Z,12.30
2018-01-10T08:37:00.123Z,10.87
2018-01-10T08:40:11.315Z,11.53
2018-01-10T08:43:22.697Z,11.77
2018-01-10T08:46:33.885Z,11.50
2018-01-10T08:49:44.808Z,12.83
2018-01-10T08:52:58.897Z,11.40
2018-01-10T08:56:11.032Z,12.30
2018-01-10T08:59:22.698Z,11.50
2018-01-10T09:02:34.143Z,12.13
2018-01-10T09:05:47.196Z,11.40
2018-01-10T09:09:00.837Z,12.07
2018-01-10T09:12:13.880Z,11.57
2018-01-10T09:15:24.922Z,11.50
2018-01-10T09:18:35.937Z,12.07
2018-01-10T09:21:47.336Z,12.10
2018-01-10T09:24:56.415Z,13.40
2018-01-10T09:28:07.374Z,12.20
2018-01-10T09:31:18.713Z,11.73
2018-01-10T09:34:28.410Z,12.33
2018-01-10T09:37:38.299Z,12.50
2018-01-10T09:40:48.016Z,12.80
2018-01-10T09:44:05.708Z,13.10
2018-01-10T09:47:16.013Z,12.67
2018-01-10T09:50:26.358Z,12.20
2018-01-10T09:53:37.900Z,11.63
2018-01-10T09:56:47.604Z,13.63
2018-01-10T09:59:58.663Z,12.13
2018-01-10T10:03:10.653Z,13.00
2018-01-10T10:06:20.931Z,13.17
2018-01-10T10:09:31.475Z,14.00
2018-01-10T10:12:40.613Z,13.83
2018-01-10T10:15:50.635Z,12.73
2018-01-10T10:19:00.554Z,13.83
2018-01-10T10:22:10.750Z,14.10
2018-01-10T10:25:20.202Z,13.70
2018-01-10T10:28:29.146Z,14.13
2018-01-10T10:31:39.039Z,13.40
2018-01-10T10:34:52.797Z,14.20
2018-01-10T10:38:09.136Z,14.67
2018-01-10T10:41:19.094Z,14.20
2018-01-10T10:44:30.251Z,14.30
2018-01-10T10:47:46.464Z,14.70
2018-01-10T10:50:56.499Z,14.23
2018-01-10T10:54:08.327Z,12.90
2018-01-10T10:57:21.862Z,14.27
2018-01-10T11:00:33.301Z,15.83
2018-01-10T11:03:44.861Z,14.93
2018-01-10T11:06:56.406Z,15.13
2018-01-10T11:10:07.041Z,13.60
2018-01-10T11:13:20.382Z,16.90
2018-01-10T11:16:32.949Z,16.40
2018-01-10T11:19:43.450Z,15.90
2018-01-10T11:22:56.571Z,16.93
2018-01-10T11:26:07.865Z,16.27
2018-01-10T11:29:19.185Z,14.77
2018-01-10T11:32:30.102Z,17.53
2018-01-10T11:35:43.978Z,16.47
2018-01-10T11:38:55.752Z,17.53
2018-01-10T11:42:07.907Z,19.10
2018-01-10T11:45:19.491Z,20.60
2018-01-10T11:48:30.338Z,19.57
2018-01-10T11:51:41.660Z,20.30
2018-01-10T11:54:51.444Z,20.97
2018-01-10T11:58:03.587Z,22.07
2018-01-10T12:01:15.050Z,20.00
2018-01-10T12:04:24.903Z,20.23
2018-01-10T12:07:37.510Z,19.40
2018-01-10T12:10:47.982Z,18.57
2018-01-10T12:13:57.007Z,18.10
2018-01-10T12:17:08.114Z,17.83
2018-01-10T12:20:21.685Z,16.40
2018-01-10T12:23:35.696Z,16.50
2018-01-10T12:26:48.042Z,15.70
2018-01-10T12:29:59.095Z,17.00
2018-01-10T12:33:08.352Z,17.07
2018-01-10T12:36:18.005Z,15.87
2018-01-10T12:39:30.207Z,16.50
2018-01-10T12:42:42.116Z,15.57
2018-01-10T12:45:58.934Z,16.90
2018-01-10T12:49:08.899Z,16.90
2018-01-10T12:52:22.060Z,15.40
2018-01-10T12:55:33.708Z,15.30
2018-01-10T12:58:44.908Z,16.53
2018-01-10T13:01:59.133Z,14.80
2018-01-10T13:05:17.882Z,15.17
2018-01-10T13:08:33.276Z,14.83
2018-01-10T13:11:43.160Z,15.60
2018-01-10T13:14:55.186Z,16.70
2018-01-10T13:18:06.104Z,16.77
2018-01-10T13:21:19.995Z,14.53
2018-01-10T13:24:30.067Z,16.20
2018-01-10T13:27:41.552Z,15.13
2018-01-10T13:30:58.349Z,14.83
2018-01-10T13:34:09.739Z,15.80
2018-01-10T13:37:21.204Z,14.43
2018-01-10T13:40:29.634Z,14.77
2018-01-10T13:43:39.290Z,14.80
2018-01-10T13:46:48.812Z,14.90
2018-01-10T13:49:59.754Z,15.07
2018-01-10T13:53:10.359Z,16.17
2018-01-10T13:56:24.767Z,16.40
2018-01-10T13:59:35.330Z,17.10
2018-01-10T14:02:49.040Z,17.07
2018-01-10T14:05:59.179Z,16.10
2018-01-10T14:09:11.120Z,16.70
2018-01-10T14:12:21.608Z,16.43
2018-01-10T14:15:32.910Z,16.27
2018-01-10T14:18:42.359Z,16.03
2018-01-10T14:21:59.867Z,15.30
2018-01-10T14:25:16.742Z,16.63
2018-01-10T14:28:28.920Z,16.27
2018-01-10T14:31:38.993Z,16.10
2018-01-10T14:34:48.442Z,15.40
2018-01-10T14:38:00.522Z,15.17
2018-01-10T14:41:12.830Z,16.60
2018-01-10T14:44:25.205Z,15.77
2018-01-10T14:47:37.488Z,15.90
2018-01-10T14:50:47.200Z,15.57
2018-01-10T14:54:00.015Z,16.10
2018-01-10T14:57:11.199Z,16.17
2018-01-10T15:00:20.953Z,14.60
2018-01-10T15:03:31.828Z,15.13
2018-01-10T15:06:41.126Z,15.50
2018-01-10T15:09:51.505Z,14.70
2018-01-10T15:13:05.753Z,15.90
2018-01-10T15:16:17.077Z,14.60
2018-01-10T15:19:26.357Z,15.03
2018-01-10T15:22:36.210Z,13.50
2018-01-10T15:25:49.837Z,14.00
2018-01-10T15:28:59.788Z,15.97
2018-01-10T15:32:10.259Z,14.43
2018-01-10T15:35:21.172Z,14.20
2018-01-10T15:38:32.149Z,14.57
2018-01-10T15:41:41.455Z,14.03
2018-01-10T15:44:52.545Z,14.83
2018-01-10T15:48:04.037Z,15.17
2018-01-10T15:51:15.406Z,14.27
2018-01-10T15:54:35.238Z,13.60
2018-01-10T15:57:46.628Z,14.27
2018-01-10T16:00:59.376Z,13.73
2018-01-10T16:04:13.943Z,13.43
2018-01-10T16:07:22.597Z,14.97
2018-01-10T16:10:30.694Z,13.70
2018-01-10T16:13:40.336Z,14.00
2018-01-10T16:16:49.881Z,14.50
2018-01-10T16:20:01.349Z,14.17
2018-01-10T16:23:11.858Z,15.03
2018-01-10T16:26:25.226Z,14.73
2018-01-10T16:29:37.876Z,14.67
2018-01-10T16:32:50.598Z,15.43
2018-01-10T16:36:04.684Z,14.77
2018-01-10T16:39:15.829Z,13.93
2018-01-10T16:42:25.987Z,12.70
2018-01-10T16:45:38.038Z,13.63
2018-01-10T16:49:05.277Z,13.63
2018-01-10T16:52:27.149Z,14.20
2018-01-10T16:59:32.324Z,13.50
2018-01-10T17:03:10.871Z,13.77
2018-01-10T17:06:36.691Z,14.23
2018-01-10T17:10:22.119Z,14.80
2018-01-10T17:13:49.221Z,14.30
2018-01-10T17:17:27.674Z,15.07
2018-01-10T17:20:46.146Z,15.10
2018-01-10T17:24:12.927Z,16.47
2018-01-10T17:27:40.777Z,15.47
2018-01-10T17:34:29.425Z,15.53
2018-01-10T17:38:04.507Z,15.40
2018-01-10T17:41:26.955Z,16.63
2018-01-10T17:44:55.225Z,14.77
2018-01-10T17:48:18.078Z,15.33
2018-01-10T17:51:41.018Z,15.13
2018-01-10T18:02:00.374Z,15.77
2018-01-10T18:05:23.858Z,15.70
2018-01-10T18:08:38.905Z,16.33
2018-01-10T18:12:01.273Z,15.50
2018-01-10T18:15:18.942Z,14.87
2018-01-10T18:18:45.117Z,14.97
2018-01-10T18:22:05.064Z,16.40
2018-01-10T18:25:29.951Z,15.33
2018-01-10T18:28:56.836Z,15.43
2018-01-10T18:32:11.033Z,15.17
2018-01-10T18:35:34.842Z,14.60
2018-01-10T18:38:57.120Z,15.47
2018-01-10T18:42:18.042Z,16.13
2018-01-10T18:45:44.150Z,15.30
2018-01-10T18:49:12.669Z,14.90
2018-01-10T18:52:34.282Z,15.00
2018-01-10T18:55:57.883Z,14.47
2018-01-10T18:59:12.664Z,14.90
2018-01-10T19:02:39.514Z,14.70
2018-01-10T19:06:29.324Z,14.80
2018-01-10T19:09:47.042Z,14.63
2018-01-10T19:13:05.216Z,16.00
2018-01-10T19:16:23.114Z,15.10
2018-01-10T19:19:47.180Z,14.50
2018-01-10T19:23:27.373Z,16.00
2018-01-10T19:26:58.227Z,15.97
2018-01-10T19:30:32.272Z,15.37
2018-01-10T19:33:56.513Z,14.40
2018-01-10T19:41:07.982Z,15.23
2018-01-10T19:44:34.973Z,15.43
2018-01-10T19:47:56.794Z,16.20
2018-01-10T19:51:12.836Z,15.20
2018-01-10T19:55:01.385Z,15.30
2018-01-10T19:58:42.947Z,14.63
2018-01-10T20:01:53.426Z,16.00
2018-01-10T20:05:04.493Z,15.20
2018-01-10T20:08:26.830Z,14.63
2018-01-10T20:23:01.350Z,15.43
2018-01-10T20:26:09.970Z,14.97
2018-01-10T20:29:24.310Z,15.30
2018-01-10T20:32:33.624Z,16.20
2018-01-10T20:35:48.726Z,17.10
2018-01-10T20:38:58.354Z,15.20
2018-01-10T20:42:11.358Z,16.37
2018-01-10T20:45:27.038Z,15.50
2018-01-10T20:48:41.023Z,14.47
2018-01-10T20:51:52.087Z,15.10
2018-01-10T20:55:04.658Z,15.83
2018-01-10T20:58:15.449Z,16.00
2018-01-10T21:01:24.493Z,15.47
2018-01-10T21:04:35.118Z,15.20
2018-01-10T21:07:46.408Z,16.60
2018-01-10T21:10:57.283Z,15.67
2018-01-10T21:14:08.246Z,15.40
2018-01-10T21:17:19.450Z,15.63
2018-01-10T21:20:30.363Z,15.53
2018-01-10T21:23:41.088Z,16.03
2018-01-10T21:26:52.389Z,15.10
2018-01-10T21:30:04.945Z,15.30
2018-01-10T21:33:18.207Z,14.90
2018-01-10T21:36:26.951Z,14.67
2018-01-10T21:39:42.200Z,15.90
2018-01-10T21:43:05.220Z,14.10
2018-01-10T21:46:17.790Z,15.73
2018-01-10T21:49:25.148Z,16.00
2018-01-10T21:52:35.667Z,15.57
2018-01-10T21:55:45.690Z,14.83
2018-01-10T21:58:57.515Z,15.20
2018-01-10T22:02:08.216Z,13.77
2018-01-10T22:05:21.538Z,16.00
2018-01-10T22:08:31.509Z,15.87
2018-01-10T22:11:41.041Z,15.90
2018-01-10T22:14:53.804Z,15.30
2018-01-10T22:18:03.767Z,14.10
2018-01-10T22:21:14.063Z,15.80
2018-01-10T22:24:24.062Z,14.73
2018-01-10T22:27:34.334Z,15.53
2018-01-10T22:30:43.483Z,16.70
2018-01-10T22:33:53.589Z,15.00
2018-01-10T22:37:02.654Z,15.00
2018-01-10T22:40:13.184Z,15.20
2018-01-10T22:43:24.430Z,14.93
2018-01-10T22:46:32.753Z,16.03
2018-01-10T22:49:46.709Z,14.60
2018-01-10T22:52:57.441Z,15.40
2018-01-10T22:56:09.351Z,16.40
2018-01-10T22:59:18.838Z,15.43
2018-01-10T23:02:29.238Z,15.77
2018-01-10T23:05:40.844Z,16.70
2018-01-10T23:08:52.526Z,15.50
2018-01-10T23:12:03.549Z,17.47
2018-01-10T23:15:16.414Z,15.20
2018-01-10T23:18:29.435Z,14.47
2018-01-10T23:21:39.457Z,16.17
2018-01-10T23:24:49.280Z,15.30
2018-01-10T23:28:00.116Z,16.17
2018-01-10T23:31:10.140Z,15.00
2018-01-10T23:34:19.853Z,15.10
2018-01-10T23:37:30.405Z,15.13
2018-01-10T23:40:41.353Z,15.67
2018-01-10T23:43:55.020Z,14.90
2018-01-10T23:47:04.812Z,16.00
2018-01-10T23:50:16.068Z,14.00
2018-01-10T23:53:29.279Z,16.20
2018-01-10T23:56:46.132Z,15.37
2018-01-10T23:59:57.035Z,17.03
